sensor_id;sensor_type;location;lat;lon;timestamp;P1;durP1;ratioP1;P2;durP2;ratioP2
29246;SDS011;16272;48.188;9.964;2023-05-14T00:01:07;11.18;;;5.70;;
29246;SDS011;16272;48.188;9.964;2023-05-14T00:03:32;11.13;;;5.20;;
29246;SDS011;16272;48.188;9.964;2023-05-14T00:05:58;10.70;;;5.23;;
29246;SDS011;16272;48.188;9.964;2023-05-14T00:08:23;10.47;;;4.93;;
29246;SDS011;16272;48.188;9.964;2023-05-14T00:10:48;11.27;;;5.37;;
29246;SDS011;16272;48.188;9.964;2023-05-14T00:13:13;11.17;;;5.00;;
29246;SDS011;16272;48.188;9.964;2023-05-14T00:15:39;10.87;;;5.03;;
29246;SDS011;16272;48.188;9.964;2023-05-14T00:18:04;11.57;;;5.40;;
29246;SDS011;16272;48.188;9.964;2023-05-14T00:20:30;11.40;;;5.20;;
29246;SDS011;16272;48.188;9.964;2023-05-14T00:22:56;12.03;;;5.70;;
29246;SDS011;16272;48.188;9.964;2023-05-14T00:25:21;12.17;;;5.97;;
29246;SDS011;16272;48.188;9.964;2023-05-14T00:27:46;11.90;;;5.70;;
29246;SDS011;16272;48.188;9.964;2023-05-14T00:30:12;12.33;;;5.70;;
29246;SDS011;16272;48.188;9.964;2023-05-14T00:32:37;12.07;;;5.67;;
29246;SDS011;16272;48.188;9.964;2023-05-14T00:35:03;13.87;;;6.57;;
29246;SDS011;16272;48.188;9.964;2023-05-14T00:37:28;13.48;;;5.93;;
29246;SDS011;16272;48.188;9.964;2023-05-14T00:39:54;13.93;;;5.93;;
29246;SDS011;16272;48.188;9.964;2023-05-14T00:42:19;13.47;;;6.37;;
29246;SDS011;16272;48.188;9.964;2023-05-14T00:44:44;13.30;;;6.03;;
29246;SDS011;16272;48.188;9.964;2023-05-14T00:47:09;13.30;;;5.70;;
29246;SDS011;16272;48.188;9.964;2023-05-14T00:49:35;12.97;;;6.47;;
29246;SDS011;16272;48.188;9.964;2023-05-14T00:52:00;14.33;;;6.37;;
29246;SDS011;16272;48.188;9.964;2023-05-14T00:54:26;16.88;;;7.28;;
29246;SDS011;16272;48.188;9.964;2023-05-14T00:56:52;13.93;;;7.07;;
29246;SDS011;16272;48.188;9.964;2023-05-14T00:59:18;15.80;;;7.00;;
29246;SDS011;16272;48.188;9.964;2023-05-14T01:01:44;16.10;;;7.33;;
29246;SDS011;16272;48.188;9.964;2023-05-14T01:04:09;15.93;;;7.55;;
29246;SDS011;16272;48.188;9.964;2023-05-14T01:06:58;15.83;;;7.13;;
29246;SDS011;16272;48.188;9.964;2023-05-14T01:11:56;16.45;;;7.50;;
29246;SDS011;16272;48.188;9.964;2023-05-14T01:17:18;15.45;;;8.02;;
29246;SDS011;16272;48.188;9.964;2023-05-14T01:19:46;16.17;;;7.50;;
29246;SDS011;16272;48.188;9.964;2023-05-14T01:22:12;16.67;;;7.85;;
29246;SDS011;16272;48.188;9.964;2023-05-14T01:24:38;16.77;;;7.90;;
29246;SDS011;16272;48.188;9.964;2023-05-14T01:27:24;18.20;;;8.27;;
29246;SDS011;16272;48.188;9.964;2023-05-14T01:30:44;17.65;;;8.48;;
29246;SDS011;16272;48.188;9.964;2023-05-14T01:32:53;15.52;;;7.55;;
29246;SDS011;16272;48.188;9.964;2023-05-14T01:35:23;16.30;;;8.23;;
29246;SDS011;16272;48.188;9.964;2023-05-14T01:37:50;15.40;;;7.27;;
29246;SDS011;16272;48.188;9.964;2023-05-14T01:40:19;16.05;;;7.68;;
29246;SDS011;16272;48.188;9.964;2023-05-14T01:42:44;16.00;;;8.13;;
29246;SDS011;16272;48.188;9.964;2023-05-14T01:45:10;17.57;;;8.37;;
29246;SDS011;16272;48.188;9.964;2023-05-14T01:47:35;16.40;;;7.70;;
29246;SDS011;16272;48.188;9.964;2023-05-14T01:50:01;16.40;;;7.67;;
29246;SDS011;16272;48.188;9.964;2023-05-14T01:52:26;17.20;;;8.60;;
29246;SDS011;16272;48.188;9.964;2023-05-14T01:54:51;16.83;;;7.68;;
29246;SDS011;16272;48.188;9.964;2023-05-14T01:57:17;17.27;;;7.93;;
29246;SDS011;16272;48.188;9.964;2023-05-14T01:59:42;16.43;;;7.80;;
29246;SDS011;16272;48.188;9.964;2023-05-14T02:02:07;15.83;;;7.60;;
29246;SDS011;16272;48.188;9.964;2023-05-14T02:04:33;16.13;;;7.47;;
29246;SDS011;16272;48.188;9.964;2023-05-14T02:06:58;16.30;;;7.20;;
29246;SDS011;16272;48.188;9.964;2023-05-14T02:09:23;16.90;;;7.93;;
29246;SDS011;16272;48.188;9.964;2023-05-14T02:11:49;18.63;;;8.30;;
29246;SDS011;16272;48.188;9.964;2023-05-14T02:14:14;18.30;;;8.27;;
29246;SDS011;16272;48.188;9.964;2023-05-14T02:16:40;17.38;;;8.30;;
29246;SDS011;16272;48.188;9.964;2023-05-14T02:19:05;17.87;;;8.23;;
29246;SDS011;16272;48.188;9.964;2023-05-14T02:21:31;17.67;;;8.38;;
29246;SDS011;16272;48.188;9.964;2023-05-14T02:23:56;17.10;;;7.67;;
29246;SDS011;16272;48.188;9.964;2023-05-14T02:26:22;19.20;;;8.33;;
29246;SDS011;16272;48.188;9.964;2023-05-14T02:28:47;18.73;;;8.57;;
29246;SDS011;16272;48.188;9.964;2023-05-14T02:31:12;18.73;;;8.63;;
29246;SDS011;16272;48.188;9.964;2023-05-14T02:33:38;19.92;;;8.65;;
29246;SDS011;16272;48.188;9.964;2023-05-14T02:36:03;19.63;;;9.20;;
29246;SDS011;16272;48.188;9.964;2023-05-14T02:38:29;19.90;;;9.30;;
29246;SDS011;16272;48.188;9.964;2023-05-14T02:40:54;19.03;;;8.60;;
29246;SDS011;16272;48.188;9.964;2023-05-14T02:43:20;20.73;;;9.23;;
29246;SDS011;16272;48.188;9.964;2023-05-14T02:45:45;21.90;;;9.60;;
29246;SDS011;16272;48.188;9.964;2023-05-14T02:48:11;20.00;;;9.40;;
29246;SDS011;16272;48.188;9.964;2023-05-14T02:50:36;23.35;;;10.02;;
29246;SDS011;16272;48.188;9.964;2023-05-14T02:53:01;21.07;;;8.67;;
29246;SDS011;16272;48.188;9.964;2023-05-14T02:55:27;18.00;;;8.63;;
29246;SDS011;16272;48.188;9.964;2023-05-14T02:57:52;22.50;;;9.77;;
29246;SDS011;16272;48.188;9.964;2023-05-14T03:00:18;21.03;;;9.40;;
29246;SDS011;16272;48.188;9.964;2023-05-14T03:02:43;20.73;;;9.18;;
29246;SDS011;16272;48.188;9.964;2023-05-14T03:05:09;20.20;;;9.63;;
29246;SDS011;16272;48.188;9.964;2023-05-14T03:07:34;23.30;;;10.70;;
29246;SDS011;16272;48.188;9.964;2023-05-14T03:09:59;20.93;;;9.53;;
29246;SDS011;16272;48.188;9.964;2023-05-14T03:12:25;20.30;;;9.25;;
29246;SDS011;16272;48.188;9.964;2023-05-14T03:14:50;21.80;;;9.10;;
29246;SDS011;16272;48.188;9.964;2023-05-14T03:17:16;20.23;;;9.20;;
29246;SDS011;16272;48.188;9.964;2023-05-14T03:19:41;22.47;;;9.97;;
29246;SDS011;16272;48.188;9.964;2023-05-14T03:22:06;22.17;;;9.30;;
29246;SDS011;16272;48.188;9.964;2023-05-14T03:24:33;21.37;;;9.33;;
29246;SDS011;16272;48.188;9.964;2023-05-14T03:26:58;20.20;;;9.13;;
29246;SDS011;16272;48.188;9.964;2023-05-14T03:29:24;19.93;;;9.07;;
29246;SDS011;16272;48.188;9.964;2023-05-14T03:31:49;22.13;;;9.57;;
29246;SDS011;16272;48.188;9.964;2023-05-14T03:34:15;20.57;;;9.40;;
29246;SDS011;16272;48.188;9.964;2023-05-14T03:36:40;21.20;;;9.67;;
29246;SDS011;16272;48.188;9.964;2023-05-14T03:39:05;20.10;;;9.23;;
29246;SDS011;16272;48.188;9.964;2023-05-14T03:41:31;22.30;;;9.43;;
29246;SDS011;16272;48.188;9.964;2023-05-14T03:43:57;21.55;;;9.18;;
29246;SDS011;16272;48.188;9.964;2023-05-14T03:46:22;20.17;;;9.73;;
29246;SDS011;16272;48.188;9.964;2023-05-14T03:48:48;22.45;;;9.10;;
29246;SDS011;16272;48.188;9.964;2023-05-14T03:51:13;21.17;;;9.43;;
29246;SDS011;16272;48.188;9.964;2023-05-14T03:53:38;22.77;;;9.90;;
29246;SDS011;16272;48.188;9.964;2023-05-14T03:56:04;20.50;;;8.93;;
29246;SDS011;16272;48.188;9.964;2023-05-14T03:58:29;22.17;;;9.53;;
29246;SDS011;16272;48.188;9.964;2023-05-14T04:00:55;22.07;;;9.37;;
29246;SDS011;16272;48.188;9.964;2023-05-14T04:03:20;21.13;;;9.37;;
29246;SDS011;16272;48.188;9.964;2023-05-14T04:05:45;21.90;;;9.23;;
29246;SDS011;16272;48.188;9.964;2023-05-14T04:08:11;21.97;;;9.93;;
29246;SDS011;16272;48.188;9.964;2023-05-14T04:10:36;22.70;;;10.37;;
29246;SDS011;16272;48.188;9.964;2023-05-14T04:13:01;23.90;;;9.57;;
29246;SDS011;16272;48.188;9.964;2023-05-14T04:15:27;20.10;;;9.17;;
29246;SDS011;16272;48.188;9.964;2023-05-14T04:17:52;21.30;;;9.67;;
29246;SDS011;16272;48.188;9.964;2023-05-14T04:20:18;22.70;;;10.10;;
29246;SDS011;16272;48.188;9.964;2023-05-14T04:22:43;21.70;;;9.97;;
29246;SDS011;16272;48.188;9.964;2023-05-14T04:25:08;24.47;;;10.60;;
29246;SDS011;16272;48.188;9.964;2023-05-14T04:27:34;23.13;;;10.13;;
29246;SDS011;16272;48.188;9.964;2023-05-14T04:29:59;21.50;;;9.88;;
29246;SDS011;16272;48.188;9.964;2023-05-14T04:32:25;24.30;;;10.40;;
29246;SDS011;16272;48.188;9.964;2023-05-14T04:34:50;22.97;;;10.30;;
29246;SDS011;16272;48.188;9.964;2023-05-14T04:37:16;23.92;;;11.13;;
29246;SDS011;16272;48.188;9.964;2023-05-14T04:39:41;24.57;;;10.70;;
29246;SDS011;16272;48.188;9.964;2023-05-14T04:42:07;22.65;;;9.90;;
29246;SDS011;16272;48.188;9.964;2023-05-14T04:44:33;23.37;;;9.97;;
29246;SDS011;16272;48.188;9.964;2023-05-14T04:46:59;22.70;;;9.90;;
29246;SDS011;16272;48.188;9.964;2023-05-14T04:49:24;23.63;;;11.00;;
29246;SDS011;16272;48.188;9.964;2023-05-14T04:51:50;24.40;;;11.17;;
29246;SDS011;16272;48.188;9.964;2023-05-14T04:54:15;21.47;;;9.97;;
29246;SDS011;16272;48.188;9.964;2023-05-14T04:56:40;22.17;;;9.90;;
29246;SDS011;16272;48.188;9.964;2023-05-14T04:59:06;22.43;;;10.20;;
29246;SDS011;16272;48.188;9.964;2023-05-14T05:01:31;20.92;;;9.32;;
29246;SDS011;16272;48.188;9.964;2023-05-14T05:03:57;21.67;;;9.87;;
29246;SDS011;16272;48.188;9.964;2023-05-14T05:06:22;21.57;;;9.73;;
29246;SDS011;16272;48.188;9.964;2023-05-14T05:08:47;22.50;;;9.63;;
29246;SDS011;16272;48.188;9.964;2023-05-14T05:11:13;22.30;;;9.70;;
29246;SDS011;16272;48.188;9.964;2023-05-14T05:13:38;24.80;;;10.37;;
29246;SDS011;16272;48.188;9.964;2023-05-14T05:16:03;21.27;;;9.83;;
29246;SDS011;16272;48.188;9.964;2023-05-14T05:18:29;22.92;;;10.10;;
29246;SDS011;16272;48.188;9.964;2023-05-14T05:20:54;21.77;;;9.53;;
29246;SDS011;16272;48.188;9.964;2023-05-14T05:23:20;20.90;;;9.40;;
29246;SDS011;16272;48.188;9.964;2023-05-14T05:25:45;21.40;;;9.83;;
29246;SDS011;16272;48.188;9.964;2023-05-14T05:28:10;22.58;;;10.10;;
29246;SDS011;16272;48.188;9.964;2023-05-14T05:30:36;22.00;;;9.67;;
29246;SDS011;16272;48.188;9.964;2023-05-14T05:33:01;21.70;;;10.07;;
29246;SDS011;16272;48.188;9.964;2023-05-14T05:35:27;20.63;;;9.33;;
29246;SDS011;16272;48.188;9.964;2023-05-14T05:37:53;21.77;;;9.57;;
29246;SDS011;16272;48.188;9.964;2023-05-14T05:40:18;20.27;;;8.97;;
29246;SDS011;16272;48.188;9.964;2023-05-14T05:42:44;20.87;;;9.10;;
29246;SDS011;16272;48.188;9.964;2023-05-14T05:45:09;22.13;;;9.53;;
29246;SDS011;16272;48.188;9.964;2023-05-14T05:47:35;21.17;;;9.27;;
29246;SDS011;16272;48.188;9.964;2023-05-14T05:50:00;20.20;;;9.73;;
29246;SDS011;16272;48.188;9.964;2023-05-14T05:52:25;21.83;;;9.33;;
29246;SDS011;16272;48.188;9.964;2023-05-14T05:54:51;22.60;;;9.87;;
29246;SDS011;16272;48.188;9.964;2023-05-14T05:57:16;20.80;;;9.23;;
29246;SDS011;16272;48.188;9.964;2023-05-14T05:59:41;21.00;;;9.80;;
29246;SDS011;16272;48.188;9.964;2023-05-14T06:02:07;20.50;;;8.93;;
29246;SDS011;16272;48.188;9.964;2023-05-14T06:04:32;20.97;;;8.93;;
29246;SDS011;16272;48.188;9.964;2023-05-14T06:06:59;20.43;;;9.53;;
29246;SDS011;16272;48.188;9.964;2023-05-14T06:09:25;19.33;;;8.85;;
29246;SDS011;16272;48.188;9.964;2023-05-14T06:11:50;21.27;;;9.60;;
29246;SDS011;16272;48.188;9.964;2023-05-14T06:14:15;22.90;;;10.70;;
29246;SDS011;16272;48.188;9.964;2023-05-14T06:16:42;23.37;;;11.30;;
29246;SDS011;16272;48.188;9.964;2023-05-14T06:19:07;21.27;;;10.00;;
29246;SDS011;16272;48.188;9.964;2023-05-14T06:21:32;19.77;;;9.27;;
29246;SDS011;16272;48.188;9.964;2023-05-14T06:23:58;21.33;;;9.57;;
29246;SDS011;16272;48.188;9.964;2023-05-14T06:26:23;21.87;;;9.53;;
29246;SDS011;16272;48.188;9.964;2023-05-14T06:28:49;21.23;;;9.68;;
29246;SDS011;16272;48.188;9.964;2023-05-14T06:31:14;20.77;;;8.90;;
29246;SDS011;16272;48.188;9.964;2023-05-14T06:33:39;21.30;;;9.80;;
29246;SDS011;16272;48.188;9.964;2023-05-14T06:36:05;20.53;;;10.27;;
29246;SDS011;16272;48.188;9.964;2023-05-14T06:38:32;20.00;;;9.60;;
29246;SDS011;16272;48.188;9.964;2023-05-14T06:40:57;21.10;;;9.27;;
29246;SDS011;16272;48.188;9.964;2023-05-14T06:43:23;21.63;;;8.90;;
29246;SDS011;16272;48.188;9.964;2023-05-14T06:45:48;20.17;;;9.53;;
29246;SDS011;16272;48.188;9.964;2023-05-14T06:48:15;19.95;;;9.73;;
29246;SDS011;16272;48.188;9.964;2023-05-14T06:50:42;20.03;;;8.47;;
29246;SDS011;16272;48.188;9.964;2023-05-14T06:53:08;19.67;;;9.48;;
29246;SDS011;16272;48.188;9.964;2023-05-14T06:55:33;18.93;;;8.73;;
29246;SDS011;16272;48.188;9.964;2023-05-14T06:57:59;18.67;;;8.73;;
29246;SDS011;16272;48.188;9.964;2023-05-14T07:00:24;17.87;;;8.20;;
29246;SDS011;16272;48.188;9.964;2023-05-14T07:02:49;19.40;;;8.90;;
29246;SDS011;16272;48.188;9.964;2023-05-14T07:05:14;20.13;;;9.37;;
29246;SDS011;16272;48.188;9.964;2023-05-14T07:07:40;19.33;;;9.25;;
29246;SDS011;16272;48.188;9.964;2023-05-14T07:10:05;17.63;;;8.20;;
29246;SDS011;16272;48.188;9.964;2023-05-14T07:12:32;18.13;;;9.02;;
29246;SDS011;16272;48.188;9.964;2023-05-14T07:14:58;16.83;;;8.40;;
29246;SDS011;16272;48.188;9.964;2023-05-14T07:17:24;18.45;;;8.52;;
29246;SDS011;16272;48.188;9.964;2023-05-14T07:19:51;18.40;;;8.80;;
29246;SDS011;16272;48.188;9.964;2023-05-14T07:22:16;17.70;;;8.30;;
29246;SDS011;16272;48.188;9.964;2023-05-14T07:24:41;17.73;;;8.67;;
29246;SDS011;16272;48.188;9.964;2023-05-14T07:27:07;17.80;;;8.47;;
29246;SDS011;16272;48.188;9.964;2023-05-14T07:29:33;18.50;;;9.00;;
29246;SDS011;16272;48.188;9.964;2023-05-14T07:31:59;18.38;;;8.90;;
29246;SDS011;16272;48.188;9.964;2023-05-14T07:34:25;18.08;;;8.65;;
29246;SDS011;16272;48.188;9.964;2023-05-14T07:36:50;19.83;;;8.90;;
29246;SDS011;16272;48.188;9.964;2023-05-14T07:39:15;19.70;;;9.47;;
29246;SDS011;16272;48.188;9.964;2023-05-14T07:41:41;18.40;;;8.50;;
29246;SDS011;16272;48.188;9.964;2023-05-14T07:44:06;21.63;;;10.13;;
29246;SDS011;16272;48.188;9.964;2023-05-14T07:46:31;21.33;;;9.87;;
29246;SDS011;16272;48.188;9.964;2023-05-14T07:48:59;20.57;;;9.47;;
29246;SDS011;16272;48.188;9.964;2023-05-14T07:51:24;21.55;;;9.70;;
29246;SDS011;16272;48.188;9.964;2023-05-14T07:53:52;20.55;;;9.52;;
29246;SDS011;16272;48.188;9.964;2023-05-14T07:56:18;20.15;;;9.68;;
29246;SDS011;16272;48.188;9.964;2023-05-14T07:58:43;19.83;;;9.90;;
29246;SDS011;16272;48.188;9.964;2023-05-14T08:01:09;19.10;;;9.30;;
29246;SDS011;16272;48.188;9.964;2023-05-14T08:03:34;19.02;;;9.63;;
29246;SDS011;16272;48.188;9.964;2023-05-14T08:06:00;19.87;;;9.43;;
29246;SDS011;16272;48.188;9.964;2023-05-14T08:08:25;20.00;;;9.90;;
29246;SDS011;16272;48.188;9.964;2023-05-14T08:10:51;18.08;;;9.27;;
29246;SDS011;16272;48.188;9.964;2023-05-14T08:13:16;17.00;;;8.87;;
29246;SDS011;16272;48.188;9.964;2023-05-14T08:15:42;18.83;;;9.13;;
29246;SDS011;16272;48.188;9.964;2023-05-14T08:18:07;19.27;;;9.10;;
29246;SDS011;16272;48.188;9.964;2023-05-14T08:20:33;17.63;;;8.53;;
29246;SDS011;16272;48.188;9.964;2023-05-14T08:22:58;16.73;;;7.70;;
29246;SDS011;16272;48.188;9.964;2023-05-14T08:25:23;16.40;;;8.23;;
29246;SDS011;16272;48.188;9.964;2023-05-14T08:27:49;15.35;;;7.88;;
29246;SDS011;16272;48.188;9.964;2023-05-14T08:30:14;15.27;;;7.77;;
29246;SDS011;16272;48.188;9.964;2023-05-14T08:32:40;16.83;;;7.63;;
29246;SDS011;16272;48.188;9.964;2023-05-14T08:35:06;15.15;;;7.35;;
29246;SDS011;16272;48.188;9.964;2023-05-14T08:37:32;17.08;;;7.82;;
29246;SDS011;16272;48.188;9.964;2023-05-14T08:39:57;15.33;;;7.60;;
29246;SDS011;16272;48.188;9.964;2023-05-14T08:42:23;13.83;;;7.10;;
29246;SDS011;16272;48.188;9.964;2023-05-14T08:44:57;13.73;;;6.60;;
29246;SDS011;16272;48.188;9.964;2023-05-14T08:47:27;13.07;;;6.47;;
29246;SDS011;16272;48.188;9.964;2023-05-14T08:50:01;13.77;;;6.57;;
29246;SDS011;16272;48.188;9.964;2023-05-14T08:52:31;14.32;;;6.63;;
29246;SDS011;16272;48.188;9.964;2023-05-14T08:55:02;12.38;;;5.90;;
29246;SDS011;16272;48.188;9.964;2023-05-14T08:57:30;12.65;;;6.22;;
29246;SDS011;16272;48.188;9.964;2023-05-14T08:59:56;12.48;;;5.75;;
29246;SDS011;16272;48.188;9.964;2023-05-14T09:02:23;12.07;;;6.00;;
29246;SDS011;16272;48.188;9.964;2023-05-14T09:04:54;13.88;;;6.30;;
29246;SDS011;16272;48.188;9.964;2023-05-14T09:07:20;13.18;;;5.90;;
29246;SDS011;16272;48.188;9.964;2023-05-14T09:09:46;14.63;;;6.90;;
29246;SDS011;16272;48.188;9.964;2023-05-14T09:12:12;12.48;;;6.68;;
29246;SDS011;16272;48.188;9.964;2023-05-14T09:14:37;13.30;;;6.27;;
29246;SDS011;16272;48.188;9.964;2023-05-14T09:17:02;14.93;;;6.50;;
29246;SDS011;16272;48.188;9.964;2023-05-14T09:19:28;12.60;;;6.20;;
29246;SDS011;16272;48.188;9.964;2023-05-14T09:21:55;14.02;;;6.18;;
29246;SDS011;16272;48.188;9.964;2023-05-14T09:24:24;12.32;;;6.28;;
29246;SDS011;16272;48.188;9.964;2023-05-14T09:26:51;13.47;;;6.40;;
29246;SDS011;16272;48.188;9.964;2023-05-14T09:29:19;14.57;;;6.60;;
29246;SDS011;16272;48.188;9.964;2023-05-14T09:31:44;13.45;;;7.07;;
29246;SDS011;16272;48.188;9.964;2023-05-14T09:34:10;13.50;;;6.50;;
29246;SDS011;16272;48.188;9.964;2023-05-14T09:36:36;12.63;;;6.47;;
29246;SDS011;16272;48.188;9.964;2023-05-14T09:39:04;12.90;;;6.50;;
29246;SDS011;16272;48.188;9.964;2023-05-14T09:41:31;13.80;;;6.57;;
29246;SDS011;16272;48.188;9.964;2023-05-14T09:43:56;12.80;;;6.28;;
29246;SDS011;16272;48.188;9.964;2023-05-14T09:46:22;13.60;;;6.27;;
29246;SDS011;16272;48.188;9.964;2023-05-14T09:48:47;12.17;;;6.37;;
29246;SDS011;16272;48.188;9.964;2023-05-14T09:51:15;13.68;;;6.47;;
29246;SDS011;16272;48.188;9.964;2023-05-14T09:53:44;13.02;;;6.40;;
29246;SDS011;16272;48.188;9.964;2023-05-14T09:56:10;13.20;;;6.07;;
29246;SDS011;16272;48.188;9.964;2023-05-14T09:58:35;12.43;;;6.10;;
29246;SDS011;16272;48.188;9.964;2023-05-14T10:01:01;13.23;;;6.63;;
29246;SDS011;16272;48.188;9.964;2023-05-14T10:03:27;12.83;;;6.00;;
29246;SDS011;16272;48.188;9.964;2023-05-14T10:05:55;12.77;;;6.32;;
29246;SDS011;16272;48.188;9.964;2023-05-14T10:08:33;12.05;;;6.20;;
29246;SDS011;16272;48.188;9.964;2023-05-14T10:11:00;13.17;;;6.20;;
29246;SDS011;16272;48.188;9.964;2023-05-14T10:13:32;11.25;;;5.95;;
29246;SDS011;16272;48.188;9.964;2023-05-14T10:18:41;13.23;;;6.28;;
29246;SDS011;16272;48.188;9.964;2023-05-14T10:21:10;12.70;;;6.22;;
29246;SDS011;16272;48.188;9.964;2023-05-14T10:23:38;12.57;;;6.07;;
29246;SDS011;16272;48.188;9.964;2023-05-14T10:26:07;12.57;;;6.55;;
29246;SDS011;16272;48.188;9.964;2023-05-14T10:28:32;13.15;;;6.40;;
29246;SDS011;16272;48.188;9.964;2023-05-14T10:30:58;12.60;;;6.20;;
29246;SDS011;16272;48.188;9.964;2023-05-14T10:33:24;12.45;;;6.15;;
29246;SDS011;16272;48.188;9.964;2023-05-14T10:36:00;11.90;;;6.23;;
29246;SDS011;16272;48.188;9.964;2023-05-14T10:38:27;11.60;;;5.85;;
29246;SDS011;16272;48.188;9.964;2023-05-14T10:41:00;12.25;;;6.32;;
29246;SDS011;16272;48.188;9.964;2023-05-14T10:43:28;13.68;;;6.25;;
29246;SDS011;16272;48.188;9.964;2023-05-14T10:45:55;11.38;;;6.07;;
29246;SDS011;16272;48.188;9.964;2023-05-14T10:48:21;12.30;;;6.17;;
29246;SDS011;16272;48.188;9.964;2023-05-14T10:50:49;11.98;;;6.20;;
29246;SDS011;16272;48.188;9.964;2023-05-14T10:53:15;12.15;;;6.15;;
29246;SDS011;16272;48.188;9.964;2023-05-14T10:55:41;12.00;;;5.80;;
29246;SDS011;16272;48.188;9.964;2023-05-14T10:58:12;11.02;;;5.38;;
29246;SDS011;16272;48.188;9.964;2023-05-14T11:00:37;12.02;;;5.90;;
29246;SDS011;16272;48.188;9.964;2023-05-14T11:03:04;11.57;;;5.70;;
29246;SDS011;16272;48.188;9.964;2023-05-14T11:05:30;10.47;;;5.17;;
29246;SDS011;16272;48.188;9.964;2023-05-14T11:07:57;10.68;;;5.50;;
29246;SDS011;16272;48.188;9.964;2023-05-14T11:10:23;10.35;;;5.30;;
29246;SDS011;16272;48.188;9.964;2023-05-14T11:12:54;10.38;;;4.85;;
29246;SDS011;16272;48.188;9.964;2023-05-14T11:15:21;9.53;;;4.83;;
29246;SDS011;16272;48.188;9.964;2023-05-14T11:17:48;10.18;;;5.03;;
29246;SDS011;16272;48.188;9.964;2023-05-14T11:20:15;10.25;;;4.90;;
29246;SDS011;16272;48.188;9.964;2023-05-14T11:22:41;10.00;;;4.70;;
29246;SDS011;16272;48.188;9.964;2023-05-14T11:25:08;9.93;;;4.80;;
29246;SDS011;16272;48.188;9.964;2023-05-14T11:27:38;11.13;;;5.43;;
29246;SDS011;16272;48.188;9.964;2023-05-14T11:30:04;10.63;;;5.28;;
29246;SDS011;16272;48.188;9.964;2023-05-14T11:32:37;10.25;;;4.78;;
29246;SDS011;16272;48.188;9.964;2023-05-14T11:35:02;11.17;;;5.43;;
29246;SDS011;16272;48.188;9.964;2023-05-14T11:37:28;10.10;;;4.43;;
29246;SDS011;16272;48.188;9.964;2023-05-14T11:39:59;9.40;;;4.50;;
29246;SDS011;16272;48.188;9.964;2023-05-14T11:42:25;9.90;;;4.40;;
29246;SDS011;16272;48.188;9.964;2023-05-14T11:44:51;9.27;;;4.57;;
29246;SDS011;16272;48.188;9.964;2023-05-14T11:47:18;10.43;;;5.28;;
29246;SDS011;16272;48.188;9.964;2023-05-14T11:49:45;9.80;;;4.90;;
29246;SDS011;16272;48.188;9.964;2023-05-14T11:52:12;9.60;;;4.97;;
29246;SDS011;16272;48.188;9.964;2023-05-14T11:54:39;10.75;;;4.63;;
29246;SDS011;16272;48.188;9.964;2023-05-14T11:57:09;10.30;;;5.03;;
29246;SDS011;16272;48.188;9.964;2023-05-14T11:59:36;9.32;;;4.47;;
29246;SDS011;16272;48.188;9.964;2023-05-14T12:02:02;9.10;;;4.77;;
29246;SDS011;16272;48.188;9.964;2023-05-14T12:04:31;9.88;;;4.40;;
29246;SDS011;16272;48.188;9.964;2023-05-14T12:06:57;9.07;;;4.73;;
29246;SDS011;16272;48.188;9.964;2023-05-14T12:09:23;9.27;;;4.60;;
29246;SDS011;16272;48.188;9.964;2023-05-14T12:11:49;8.60;;;4.00;;
29246;SDS011;16272;48.188;9.964;2023-05-14T12:14:16;8.80;;;4.43;;
29246;SDS011;16272;48.188;9.964;2023-05-14T12:16:44;8.80;;;4.68;;
29246;SDS011;16272;48.188;9.964;2023-05-14T12:19:13;9.13;;;4.63;;
29246;SDS011;16272;48.188;9.964;2023-05-14T12:21:39;9.23;;;5.07;;
29246;SDS011;16272;48.188;9.964;2023-05-14T12:24:14;9.05;;;4.85;;
29246;SDS011;16272;48.188;9.964;2023-05-14T12:26:47;8.80;;;4.33;;
29246;SDS011;16272;48.188;9.964;2023-05-14T12:29:14;8.30;;;4.28;;
29246;SDS011;16272;48.188;9.964;2023-05-14T12:31:44;8.35;;;3.95;;
29246;SDS011;16272;48.188;9.964;2023-05-14T12:34:13;8.05;;;4.00;;
29246;SDS011;16272;48.188;9.964;2023-05-14T12:36:39;9.02;;;4.75;;
29246;SDS011;16272;48.188;9.964;2023-05-14T12:39:05;8.83;;;4.53;;
29246;SDS011;16272;48.188;9.964;2023-05-14T12:41:30;8.87;;;4.30;;
29246;SDS011;16272;48.188;9.964;2023-05-14T12:43:57;8.70;;;4.45;;
29246;SDS011;16272;48.188;9.964;2023-05-14T12:46:23;9.70;;;4.55;;
29246;SDS011;16272;48.188;9.964;2023-05-14T12:48:50;9.20;;;4.68;;
29246;SDS011;16272;48.188;9.964;2023-05-14T12:51:15;9.47;;;4.57;;
29246;SDS011;16272;48.188;9.964;2023-05-14T12:53:41;7.87;;;3.97;;
29246;SDS011;16272;48.188;9.964;2023-05-14T12:56:06;9.00;;;4.57;;
29246;SDS011;16272;48.188;9.964;2023-05-14T12:58:32;8.73;;;4.80;;
29246;SDS011;16272;48.188;9.964;2023-05-14T13:00:57;8.52;;;4.03;;
29246;SDS011;16272;48.188;9.964;2023-05-14T13:03:22;8.00;;;4.03;;
29246;SDS011;16272;48.188;9.964;2023-05-14T13:05:49;8.30;;;4.00;;
29246;SDS011;16272;48.188;9.964;2023-05-14T13:08:15;8.20;;;3.95;;
29246;SDS011;16272;48.188;9.964;2023-05-14T13:10:42;8.85;;;4.68;;
29246;SDS011;16272;48.188;9.964;2023-05-14T13:13:08;8.00;;;4.10;;
29246;SDS011;16272;48.188;9.964;2023-05-14T13:15:34;8.48;;;4.40;;
29246;SDS011;16272;48.188;9.964;2023-05-14T13:18:00;8.10;;;4.00;;
29246;SDS011;16272;48.188;9.964;2023-05-14T13:20:25;7.53;;;3.70;;
29246;SDS011;16272;48.188;9.964;2023-05-14T13:22:51;8.35;;;4.20;;
29246;SDS011;16272;48.188;9.964;2023-05-14T13:25:17;7.80;;;4.03;;
29246;SDS011;16272;48.188;9.964;2023-05-14T13:27:42;7.90;;;3.90;;
29246;SDS011;16272;48.188;9.964;2023-05-14T13:30:08;7.80;;;3.80;;
29246;SDS011;16272;48.188;9.964;2023-05-14T13:32:33;8.00;;;3.75;;
29246;SDS011;16272;48.188;9.964;2023-05-14T13:34:58;8.33;;;4.60;;
29246;SDS011;16272;48.188;9.964;2023-05-14T13:37:24;8.10;;;4.33;;
29246;SDS011;16272;48.188;9.964;2023-05-14T13:39:51;7.88;;;3.70;;
29246;SDS011;16272;48.188;9.964;2023-05-14T13:42:16;8.43;;;4.00;;
29246;SDS011;16272;48.188;9.964;2023-05-14T13:44:41;7.33;;;3.30;;
29246;SDS011;16272;48.188;9.964;2023-05-14T13:47:06;8.68;;;3.20;;
29246;SDS011;16272;48.188;9.964;2023-05-14T13:49:32;8.30;;;3.70;;
29246;SDS011;16272;48.188;9.964;2023-05-14T13:51:58;8.10;;;3.80;;
29246;SDS011;16272;48.188;9.964;2023-05-14T13:54:23;8.37;;;3.57;;
29246;SDS011;16272;48.188;9.964;2023-05-14T13:56:48;7.43;;;3.50;;
29246;SDS011;16272;48.188;9.964;2023-05-14T13:59:14;7.80;;;3.88;;
29246;SDS011;16272;48.188;9.964;2023-05-14T14:01:40;7.40;;;3.30;;
29246;SDS011;16272;48.188;9.964;2023-05-14T14:04:07;10.45;;;3.40;;
29246;SDS011;16272;48.188;9.964;2023-05-14T14:06:34;9.50;;;3.28;;
29246;SDS011;16272;48.188;9.964;2023-05-14T14:09:00;7.82;;;3.40;;
29246;SDS011;16272;48.188;9.964;2023-05-14T14:11:27;7.75;;;3.58;;
29246;SDS011;16272;48.188;9.964;2023-05-14T14:13:52;7.37;;;3.40;;
29246;SDS011;16272;48.188;9.964;2023-05-14T14:16:18;8.50;;;3.38;;
29246;SDS011;16272;48.188;9.964;2023-05-14T14:18:43;10.67;;;3.50;;
29246;SDS011;16272;48.188;9.964;2023-05-14T14:21:09;10.50;;;3.77;;
29246;SDS011;16272;48.188;9.964;2023-05-14T14:23:35;7.40;;;3.30;;
29246;SDS011;16272;48.188;9.964;2023-05-14T14:26:00;7.40;;;3.47;;
29246;SDS011;16272;48.188;9.964;2023-05-14T14:28:25;6.83;;;3.07;;
29246;SDS011;16272;48.188;9.964;2023-05-14T14:30:51;7.30;;;2.80;;
29246;SDS011;16272;48.188;9.964;2023-05-14T14:33:16;6.10;;;2.47;;
29246;SDS011;16272;48.188;9.964;2023-05-14T14:35:42;6.90;;;2.53;;
29246;SDS011;16272;48.188;9.964;2023-05-14T14:38:07;6.80;;;2.90;;